Terminal Aerodrome Forecast
Issued by NWS

Home | Current Version | Previous Version | Text Only | Print | Product List | Glossary Off
Versions: 1 2 3 4 5 6 7 8 9 10 11 12 13 14 15 16 17 18 19 20 21

000
FTUS42 KMHX 211742
TAFOAJ
TAF
KOAJ 211742Z 2118/2218 20005KT P6SM SCT035
     FM212100 18006KT P6SM VCTS SCT025CB BKN090
     FM220200 VRB04KT P6SM SCT020 BKN150
     FM221000 21004KT P6SM SCT008 BKN025
     FM221400 20005KT P6SM SCT200
      AMD LTD TO CLD VIS AND WIND=

USA.gov is the U.S. government's official web portal to all federal, state and local government web resources and services.